USTRANSCOM 7583


KNGU
Norfolk Naval Station (Chambers Field)
Norfolk, Virginia, US
MUGM
Guantánamo Bay Naval Air Station
Guantanamo, , CU

Activity Log

Date Flight Route Aircraft Duration
12/22/2019 CMB7583 SWOPE ECG DIW IDOLS Y323 CARPX AR3 NUCAR Y374 RUMFO ZIN EASTP SOUTP SOUTP2 B752 3h 08m

Route Details

Aircraft Information
Primary: Boeing 757-200SF
Backup: Not Available
Route Data
Distance: 1025.27nm
Sched. Duration: 3h 29m
Avg. Duration: 3h 08m (-22m)
Times Flown: 1
Recm'd Route: SWOPE ECG DIW IDOLS Y323 CARPX AR3 NUCAR Y374 RUMFO ZIN EASTP SOUTP SOUTP2
Planned Altitude: 37,000ft
Origin Wx: KNGU 080559Z 22004KT 10SM FEW030 SCT150 BKN210 24/22 A3008 RMK AO2 SLP186 OCNL LTGICCC DSNT N-E CB DSNT N-E T2 SET T02390217 10256 20233 58017 $
Dest. Wx: MUGM 080551Z 34008KT 10SM FEW030 SCT280 27/24 A3005 RMK AO2 SLP175 T02670239 10294 20267 58014 $
Notes: USTRANSCOM CONTRACT FLIGHT | OVERFLIGHT OF CUBA PROHIBITED | SOUTP & EASTP FIXES MANDATORY

Financial History
Total Freight: 53,079lbs
Average Load: 53,079lbs/flt
Fuel Used: 25,011lbs
Avg. Fuel Used: 25,011lbs/flt
Fuel Expense: $23,760
Avg. Fuel Expense: $23,760
Avg. Fuel Cost: $0.95/lbs
Total Gross Income: $87,050
Pilot Pay: $229
Total Expenses: $9,453
Total Revenue: $53,118
Average Revenue: $87,049.56